Time,TemperatureF,DewpointF,PressureIn,WindDirection,WindDirectionDegrees,WindSpeedMPH,WindSpeedGustMPH,Humidity,HourlyPrecipIn,Conditions,Clouds,dailyrainin,SoftwareType,DateUTC
2013-09-24 00:06:00,58.5,56.0,30.08,SE,136,0.0,0.0,90,0.00,,,0.00,weatherlink.com 1.10,2013-09-24 04:06:00,
2013-09-24 00:21:00,58.6,56.0,30.07,SE,136,0.0,1.0,90,0.00,,,0.00,weatherlink.com 1.10,2013-09-24 04:21:00,
2013-09-24 00:36:00,58.6,55.0,30.08,SE,136,0.0,1.0,89,0.00,,,0.00,weatherlink.com 1.10,2013-09-24 04:36:00,
2013-09-24 00:51:00,58.5,55.0,30.08,SE,136,0.0,1.0,89,0.00,,,0.00,weatherlink.com 1.10,2013-09-24 04:51:00,
2013-09-24 01:06:00,58.4,55.0,30.08,SE,136,0.0,1.0,89,0.00,,,0.00,weatherlink.com 1.10,2013-09-24 05:06:00,
2013-09-24 01:21:00,58.4,55.0,30.08,SE,136,0.0,0.0,89,0.00,,,0.00,weatherlink.com 1.10,2013-09-24 05:21:00,
2013-09-24 01:36:00,58.3,55.0,30.08,SE,136,0.0,1.0,89,0.00,,,0.00,weatherlink.com 1.10,2013-09-24 05:36:00,
2013-09-24 01:51:00,58.2,55.0,30.08,SE,136,0.0,3.0,89,0.00,,,0.00,weatherlink.com 1.10,2013-09-24 05:51:00,
2013-09-24 02:06:00,58.3,55.0,30.08,SE,136,0.0,1.0,88,0.00,,,0.00,weatherlink.com 1.10,2013-09-24 06:06:00,
2013-09-24 02:21:00,58.3,55.0,30.07,SE,136,0.0,1.0,88,0.00,,,0.00,weatherlink.com 1.10,2013-09-24 06:21:00,
2013-09-24 02:36:00,58.3,55.0,30.07,SE,137,0.0,1.0,88,0.00,,,0.00,weatherlink.com 1.10,2013-09-24 06:36:00,
2013-09-24 02:51:00,58.2,55.0,30.07,SE,136,0.0,1.0,88,0.00,,,0.00,weatherlink.com 1.10,2013-09-24 06:51:00,
2013-09-24 03:06:00,58.1,55.0,30.07,SE,137,0.0,1.0,88,0.00,,,0.00,weatherlink.com 1.10,2013-09-24 07:06:00,
2013-09-24 03:21:00,58.1,54.0,30.07,SE,136,0.0,2.0,85,0.00,,,0.00,weatherlink.com 1.10,2013-09-24 07:21:00,
2013-09-24 03:36:00,58.2,53.0,30.07,SE,136,0.0,3.0,82,0.00,,,0.00,weatherlink.com 1.10,2013-09-24 07:36:00,
2013-09-24 03:51:00,58.1,53.0,30.07,SE,137,0.0,1.0,83,0.00,,,0.00,weatherlink.com 1.10,2013-09-24 07:51:00,
2013-09-24 04:06:00,58.2,53.0,30.07,SE,137,0.0,4.0,82,0.00,,,0.00,weatherlink.com 1.10,2013-09-24 08:06:00,
2013-09-24 04:21:00,57.9,53.0,30.07,SE,136,0.0,2.0,83,0.00,,,0.00,weatherlink.com 1.10,2013-09-24 08:21:00,
2013-09-24 04:36:00,57.5,52.0,30.06,SE,136,0.0,3.0,82,0.00,,,0.00,weatherlink.com 1.10,2013-09-24 08:36:00,
2013-09-24 04:51:00,56.7,52.0,30.06,SE,136,0.0,0.0,83,0.00,,,0.00,weatherlink.com 1.10,2013-09-24 08:51:00,
2013-09-24 05:07:00,55.5,51.0,30.06,SE,137,0.0,0.0,85,0.00,,,0.00,weatherlink.com 1.10,2013-09-24 09:07:00,
2013-09-24 05:22:00,55.3,51.0,30.06,SE,136,0.0,0.0,85,0.00,,,0.00,weatherlink.com 1.10,2013-09-24 09:22:00,
2013-09-24 05:37:00,55.3,51.0,30.06,SE,136,1.0,2.0,85,0.00,,,0.00,weatherlink.com 1.10,2013-09-24 09:37:00,
2013-09-24 05:52:00,54.2,51.0,30.07,SE,136,0.0,1.0,90,0.00,,,0.00,weatherlink.com 1.10,2013-09-24 09:52:00,
2013-09-24 06:07:00,54.0,52.0,30.07,SE,136,0.0,0.0,91,0.00,,,0.00,weatherlink.com 1.10,2013-09-24 10:07:00,
2013-09-24 06:22:00,54.0,52.0,30.07,SE,137,0.0,0.0,92,0.00,,,0.00,weatherlink.com 1.10,2013-09-24 10:22:00,
2013-09-24 06:37:00,54.1,52.0,30.07,SE,136,0.0,0.0,93,0.00,,,0.00,weatherlink.com 1.10,2013-09-24 10:37:00,
2013-09-24 06:52:00,53.7,52.0,30.07,SE,136,0.0,0.0,93,0.00,,,0.00,weatherlink.com 1.10,2013-09-24 10:52:00,
2013-09-24 07:07:00,53.6,52.0,30.08,SE,136,0.0,0.0,94,0.00,,,0.00,weatherlink.com 1.10,2013-09-24 11:07:00,
2013-09-24 07:22:00,53.6,52.0,30.09,SE,136,0.0,0.0,94,0.00,,,0.00,weatherlink.com 1.10,2013-09-24 11:22:00,
2013-09-24 07:37:00,54.0,52.0,30.08,SE,137,0.0,1.0,94,0.00,,,0.00,weatherlink.com 1.10,2013-09-24 11:37:00,
2013-09-24 07:52:00,54.8,53.0,30.09,SE,137,0.0,1.0,93,0.00,,,0.00,weatherlink.com 1.10,2013-09-24 11:52:00,
2013-09-24 08:07:00,55.6,53.0,30.09,SE,136,0.0,1.0,91,0.00,,,0.00,weatherlink.com 1.10,2013-09-24 12:07:00,
2013-09-24 08:22:00,56.4,53.0,30.08,SE,136,0.0,1.0,89,0.00,,,0.00,weatherlink.com 1.10,2013-09-24 12:22:00,
2013-09-24 08:37:00,57.1,53.0,30.08,SE,136,0.0,1.0,87,0.00,,,0.00,weatherlink.com 1.10,2013-09-24 12:37:00,
2013-09-24 08:52:00,58.0,55.0,30.08,SE,137,0.0,1.0,88,0.00,,,0.00,weatherlink.com 1.10,2013-09-24 12:52:00,
2013-09-24 09:07:00,60.1,56.0,30.08,SE,136,0.0,0.0,85,0.00,,,0.00,weatherlink.com 1.10,2013-09-24 13:07:00,
2013-09-24 09:22:00,63.3,57.0,30.08,SE,136,0.0,0.0,79,0.00,,,0.00,weatherlink.com 1.10,2013-09-24 13:22:00,
2013-09-24 09:37:00,64.7,58.0,30.08,SE,136,0.0,0.0,79,0.00,,,0.00,weatherlink.com 1.10,2013-09-24 13:37:00,
2013-09-24 09:52:00,65.6,58.0,30.08,SE,136,1.0,1.0,77,0.00,,,0.00,weatherlink.com 1.10,2013-09-24 13:52:00,
2013-09-24 10:07:00,65.3,59.0,30.08,SE,136,0.0,0.0,80,0.00,,,0.00,weatherlink.com 1.10,2013-09-24 14:07:00,
2013-09-24 10:22:00,65.6,59.0,30.07,SE,136,0.0,2.0,79,0.00,,,0.00,weatherlink.com 1.10,2013-09-24 14:22:00,
2013-09-24 10:37:00,66.4,60.0,30.08,SE,136,0.0,2.0,81,0.00,,,0.00,weatherlink.com 1.10,2013-09-24 14:37:00,
2013-09-24 10:52:00,66.1,60.0,30.08,SE,136,1.0,3.0,81,0.00,,,0.00,weatherlink.com 1.10,2013-09-24 14:52:00,
2013-09-24 11:07:00,67.0,60.0,30.08,SE,136,0.0,2.0,78,0.00,,,0.00,weatherlink.com 1.10,2013-09-24 15:07:00,
2013-09-24 11:22:00,66.5,60.0,30.07,SE,136,0.0,4.0,79,0.00,,,0.00,weatherlink.com 1.10,2013-09-24 15:22:00,
2013-09-24 11:37:00,65.1,60.0,30.07,SE,136,1.0,3.0,82,0.00,,,0.00,weatherlink.com 1.10,2013-09-24 15:37:00,
2013-09-24 11:52:00,64.0,59.0,30.07,SE,136,1.0,2.0,84,0.00,,,0.00,weatherlink.com 1.10,2013-09-24 15:52:00,
2013-09-24 12:07:00,64.8,60.0,30.07,SE,136,0.0,4.0,85,0.00,,,0.00,weatherlink.com 1.10,2013-09-24 16:07:00,
2013-09-24 12:22:00,63.8,59.0,30.07,SE,136,0.0,3.0,84,0.00,,,0.00,weatherlink.com 1.10,2013-09-24 16:22:00,
2013-09-24 12:37:00,63.6,59.0,30.05,SE,136,0.0,2.0,86,0.00,,,0.00,weatherlink.com 1.10,2013-09-24 16:37:00,
2013-09-24 12:52:00,67.9,62.0,30.05,SE,136,0.0,4.0,81,0.00,,,0.00,weatherlink.com 1.10,2013-09-24 16:52:00,
2013-09-24 13:07:00,69.1,62.0,30.05,SE,136,1.0,3.0,78,0.00,,,0.00,weatherlink.com 1.10,2013-09-24 17:07:00,
2013-09-24 13:22:00,68.0,61.0,30.04,SE,136,0.0,3.0,79,0.00,,,0.00,weatherlink.com 1.10,2013-09-24 17:22:00,
2013-09-24 13:37:00,67.3,61.0,30.04,SE,138,2.0,4.0,81,0.00,,,0.00,weatherlink.com 1.10,2013-09-24 17:37:00,
2013-09-24 13:53:00,67.2,62.0,30.03,SE,138,0.0,2.0,82,0.00,,,0.00,weatherlink.com 1.10,2013-09-24 17:53:00,
2013-09-24 14:08:00,68.7,62.0,30.04,SE,139,3.0,4.0,78,0.00,,,0.00,weatherlink.com 1.10,2013-09-24 18:08:00,
2013-09-24 14:23:00,69.2,63.0,30.03,SE,138,1.0,4.0,81,0.00,,,0.00,weatherlink.com 1.10,2013-09-24 18:23:00,
2013-09-24 14:38:00,67.2,60.0,30.02,SE,139,1.0,3.0,78,0.00,,,0.00,weatherlink.com 1.10,2013-09-24 18:38:00,
2013-09-24 14:53:00,67.0,62.0,30.02,SE,138,0.0,2.0,83,0.00,,,0.00,weatherlink.com 1.10,2013-09-24 18:53:00,
2013-09-24 15:08:00,66.6,61.0,30.02,SE,138,0.0,2.0,81,0.00,,,0.00,weatherlink.com 1.10,2013-09-24 19:08:00,
2013-09-24 15:23:00,67.1,61.0,30.01,SE,138,1.0,2.0,81,0.00,,,0.00,weatherlink.com 1.10,2013-09-24 19:23:00,
2013-09-24 15:38:00,69.0,62.0,30.01,SE,139,1.0,2.0,78,0.00,,,0.00,weatherlink.com 1.10,2013-09-24 19:38:00,
2013-09-24 15:53:00,69.2,61.0,30.01,SE,138,1.0,2.0,76,0.00,,,0.00,weatherlink.com 1.10,2013-09-24 19:53:00,
2013-09-24 16:08:00,67.4,61.0,30.00,SE,139,0.0,1.0,81,0.00,,,0.00,weatherlink.com 1.10,2013-09-24 20:08:00,
2013-09-24 16:23:00,67.5,62.0,30.00,SE,138,1.0,2.0,81,0.00,,,0.00,weatherlink.com 1.10,2013-09-24 20:23:00,
2013-09-24 16:38:00,67.5,61.0,29.99,SE,138,0.0,2.0,80,0.00,,,0.00,weatherlink.com 1.10,2013-09-24 20:38:00,
2013-09-24 16:53:00,66.7,61.0,29.99,SE,139,1.0,1.0,82,0.00,,,0.00,weatherlink.com 1.10,2013-09-24 20:53:00,
2013-09-24 17:08:00,66.7,61.0,29.99,SE,139,0.0,0.0,81,0.00,,,0.00,weatherlink.com 1.10,2013-09-24 21:08:00,
2013-09-24 17:23:00,65.5,60.0,29.98,SE,139,0.0,0.0,83,0.00,,,0.00,weatherlink.com 1.10,2013-09-24 21:23:00,
2013-09-24 17:38:00,64.3,60.0,29.99,SE,138,0.0,1.0,85,0.00,,,0.00,weatherlink.com 1.10,2013-09-24 21:38:00,
2013-09-24 17:53:00,63.7,60.0,29.99,SE,138,0.0,0.0,87,0.00,,,0.00,weatherlink.com 1.10,2013-09-24 21:53:00,
2013-09-24 18:08:00,63.8,60.0,29.99,SE,138,0.0,0.0,87,0.00,,,0.00,weatherlink.com 1.10,2013-09-24 22:08:00,
2013-09-24 18:23:00,63.8,60.0,29.99,SE,138,0.0,1.0,86,0.00,,,0.00,weatherlink.com 1.10,2013-09-24 22:23:00,
2013-09-24 18:38:00,63.1,59.0,29.99,SE,138,0.0,1.0,87,0.00,,,0.00,weatherlink.com 1.10,2013-09-24 22:38:00,
2013-09-24 18:53:00,62.1,59.0,29.99,SE,138,0.0,1.0,88,0.00,,,0.00,weatherlink.com 1.10,2013-09-24 22:53:00,
2013-09-24 19:08:00,61.0,58.0,29.98,SE,138,0.0,1.0,90,0.00,,,0.00,weatherlink.com 1.10,2013-09-24 23:08:00,
2013-09-24 19:23:00,59.9,58.0,29.98,SE,139,0.0,1.0,92,0.00,,,0.00,weatherlink.com 1.10,2013-09-24 23:23:00,
2013-09-24 19:38:00,59.5,58.0,29.98,SE,138,0.0,1.0,93,0.00,,,0.00,weatherlink.com 1.10,2013-09-24 23:38:00,
2013-09-24 19:53:00,59.6,58.0,29.99,SE,138,0.0,1.0,94,0.00,,,0.00,weatherlink.com 1.10,2013-09-24 23:53:00,
2013-09-24 20:08:00,59.9,58.0,29.98,SE,138,0.0,2.0,92,0.00,,,0.00,weatherlink.com 1.10,2013-09-25 00:08:00,
2013-09-24 20:23:00,59.9,58.0,29.99,SE,138,0.0,1.0,93,0.00,,,0.00,weatherlink.com 1.10,2013-09-25 00:23:00,
2013-09-24 20:38:00,59.7,58.0,29.99,SE,138,1.0,1.0,93,0.00,,,0.00,weatherlink.com 1.10,2013-09-25 00:38:00,
2013-09-24 20:53:00,59.4,57.0,29.99,SE,139,0.0,1.0,93,0.00,,,0.00,weatherlink.com 1.10,2013-09-25 00:53:00,
2013-09-24 21:08:00,59.2,57.0,29.99,SE,138,0.0,1.0,93,0.00,,,0.00,weatherlink.com 1.10,2013-09-25 01:08:00,
2013-09-24 21:23:00,59.1,57.0,29.99,SE,138,0.0,1.0,93,0.00,,,0.00,weatherlink.com 1.10,2013-09-25 01:23:00,
2013-09-24 21:38:00,58.8,57.0,29.98,SE,139,0.0,1.0,93,0.00,,,0.00,weatherlink.com 1.10,2013-09-25 01:38:00,
2013-09-24 21:53:00,58.6,57.0,29.99,SE,139,0.0,1.0,93,0.00,,,0.00,weatherlink.com 1.10,2013-09-25 01:53:00,
2013-09-24 22:08:00,58.5,57.0,29.99,SE,139,0.0,1.0,93,0.00,,,0.00,weatherlink.com 1.10,2013-09-25 02:08:00,
2013-09-24 22:23:00,58.6,57.0,29.98,SE,138,0.0,1.0,93,0.00,,,0.00,weatherlink.com 1.10,2013-09-25 02:23:00,
2013-09-24 22:38:00,58.7,57.0,29.99,SE,139,0.0,1.0,93,0.00,,,0.00,weatherlink.com 1.10,2013-09-25 02:38:00,
2013-09-24 22:53:00,58.7,57.0,29.98,SE,139,0.0,1.0,93,0.00,,,0.00,weatherlink.com 1.10,2013-09-25 02:53:00,
2013-09-24 23:08:00,58.7,57.0,29.99,SE,138,0.0,1.0,93,0.00,,,0.00,weatherlink.com 1.10,2013-09-25 03:08:00,
2013-09-24 23:23:00,58.5,57.0,29.98,SE,138,0.0,1.0,94,0.00,,,0.00,weatherlink.com 1.10,2013-09-25 03:23:00,
2013-09-24 23:38:00,58.7,57.0,29.98,SE,139,0.0,1.0,94,0.00,,,0.00,weatherlink.com 1.10,2013-09-25 03:38:00,
2013-09-24 23:53:00,58.9,57.0,29.98,SE,138,0.0,1.0,94,0.00,,,0.00,weatherlink.com 1.10,2013-09-25 03:53:00,